Accueil
METAR-TAF:

METAR-TAF

Aéroports :

Mountain Home, Arkansas, États-Unis

latitude: 36-22-14N, longitude: 092-28-19W, altitude: 282 m

Observation

Le bulletin a été fait il y a 1 heure et 0 minutes, à 10:53 UTC
Vent calme
Température 10°C
Humidité 82%
Pression 1021 hPa
Visibilité: 16.1 km
Ciel clair

METAR: KBPK 011053Z AUTO 00000KT 10SM CLR 10/07 A3015 RMK AO2 SLP203 T01000067

Heure: 06:53 (11:53 UTC)

Prévision

Le bulletin a été fait il y a 32 minutes, à 11:21 UTC
Prévision valable du 01 à 12 UTC au 02 à 12 UTC
Vent 3 kt de ouest/nord-ouest
Visibilité: 10 km
Ciel clair
A partir de 01 à 1500 UTC
Vent 9 kt de nord-ouest avec des rafales jusqu'à 17 kt
Visibilité: 10 km
Quelques nuages à une hauteur de 12000 ft
A partir de 02 à 0000 UTC
Vent 3 kt de nord-ouest
Visibilité: 10 km
Ciel clair

TAF: KBPK 011121Z 0112/0212 30003KT P6SM SKC FM011500 31009G17KT P6SM FEW120 FM020000 32003KT P6SM SKC

Observations et prévisions météorologiques de plus de 4000 aéroports (messages METAR et TAF).

Les stations disponibles sont représentées par des disques jaunes et rouges sur la carte.

Passer la souris dessus pour voir le nom de la station.

Cliquer dessus pour voir les observations et prévisions météorologiques.

Pour changer de carte: cliquez sur les boutons verts avec une croix noire pour zoomer, sur le bouton vert avec un tiret pour effectuer un zoom arrière, ou sur les flèches vertes pour les cartes adjacentes.


METAR-TAF: